createdAt,value
2022-09-30T00:00:40.730Z,20.10
2022-09-30T00:03:08.372Z,21.08
2022-09-30T00:05:37.336Z,17.67
2022-09-30T00:08:05.034Z,21.17
2022-09-30T00:10:32.549Z,20.55
2022-09-30T00:13:01.962Z,19.90
2022-09-30T00:15:29.640Z,22.77
2022-09-30T00:17:57.370Z,23.02
2022-09-30T00:20:24.912Z,27.27
2022-09-30T00:22:53.838Z,26.35
2022-09-30T00:25:21.544Z,24.65
2022-09-30T00:27:50.036Z,31.02
2022-09-30T00:30:17.604Z,25.25
2022-09-30T00:32:45.224Z,26.47
2022-09-30T00:35:13.218Z,18.15
2022-09-30T00:37:40.776Z,20.15
2022-09-30T00:40:11.585Z,27.15
2022-09-30T00:42:41.532Z,25.45
2022-09-30T00:45:11.894Z,26.13
2022-09-30T00:47:43.649Z,24.83
2022-09-30T00:50:27.556Z,23.25
2022-09-30T00:52:58.896Z,27.00
2022-09-30T00:55:35.882Z,25.90
2022-09-30T00:58:05.247Z,24.63
2022-09-30T01:00:32.808Z,23.20
2022-09-30T01:03:00.753Z,21.98
2022-09-30T01:05:28.391Z,24.92
2022-09-30T01:07:57.698Z,24.20
2022-09-30T01:10:25.273Z,26.90
2022-09-30T01:12:54.499Z,21.02
2022-09-30T01:15:25.762Z,26.13
2022-09-30T01:17:57.281Z,22.38
2022-09-30T01:21:04.489Z,23.20
2022-09-30T01:23:59.360Z,29.77
2022-09-30T01:27:05.754Z,25.92
2022-09-30T01:30:02.332Z,24.08
2022-09-30T01:32:43.295Z,19.73
2022-09-30T01:35:17.320Z,22.58
2022-09-30T01:37:53.488Z,28.45
2022-09-30T01:40:25.049Z,22.48
2022-09-30T01:42:58.125Z,23.55
2022-09-30T01:45:33.552Z,23.60
2022-09-30T01:48:05.090Z,28.10
2022-09-30T01:50:40.155Z,22.77
2022-09-30T01:53:13.380Z,25.70
2022-09-30T01:55:43.761Z,29.88
2022-09-30T01:58:15.046Z,31.45
2022-09-30T02:00:45.105Z,24.63
2022-09-30T02:03:17.928Z,34.58
2022-09-30T02:05:51.242Z,32.87
2022-09-30T02:08:22.978Z,35.53
2022-09-30T02:10:56.377Z,31.98
2022-09-30T02:13:29.207Z,34.67
2022-09-30T02:15:58.980Z,30.45
2022-09-30T02:18:30.909Z,34.23
2022-09-30T02:21:01.022Z,33.92
2022-09-30T02:23:30.414Z,34.63
2022-09-30T02:26:06.826Z,33.88
2022-09-30T02:28:39.361Z,32.50
2022-09-30T02:31:11.323Z,33.65
2022-09-30T02:33:42.436Z,33.90
2022-09-30T02:36:12.170Z,29.73
2022-09-30T02:38:42.069Z,33.65
2022-09-30T02:41:12.441Z,33.15
2022-09-30T02:43:41.991Z,34.88
2022-09-30T02:46:11.821Z,39.55
2022-09-30T02:48:44.415Z,33.85
2022-09-30T02:51:16.653Z,32.53
2022-09-30T02:53:47.187Z,34.40
2022-09-30T02:56:23.096Z,31.50
2022-09-30T02:58:51.799Z,35.77
2022-09-30T03:01:20.179Z,31.10
2022-09-30T03:03:51.813Z,33.42
2022-09-30T03:06:19.482Z,39.10
2022-09-30T03:08:47.128Z,36.63
2022-09-30T03:11:17.794Z,41.25
2022-09-30T03:14:05.647Z,31.27
2022-09-30T03:16:47.856Z,38.20
2022-09-30T03:19:28.061Z,37.05
2022-09-30T03:22:07.994Z,38.05
2022-09-30T03:24:52.605Z,39.97
2022-09-30T03:27:30.147Z,40.15
2022-09-30T03:30:03.892Z,43.65
2022-09-30T03:32:50.053Z,46.60
2022-09-30T03:35:25.342Z,37.72
2022-09-30T03:37:59.327Z,36.38
2022-09-30T03:40:31.915Z,41.30
2022-09-30T03:43:04.748Z,39.60
2022-09-30T03:45:36.097Z,39.72
2022-09-30T03:48:06.288Z,37.60
2022-09-30T03:50:37.042Z,44.05
2022-09-30T03:53:06.050Z,42.55
2022-09-30T03:55:33.904Z,43.65
2022-09-30T03:58:01.725Z,46.05
2022-09-30T04:00:32.541Z,46.75
2022-09-30T04:03:01.035Z,45.60
2022-09-30T04:05:28.783Z,43.95
2022-09-30T04:07:57.792Z,44.78
2022-09-30T04:10:25.396Z,53.17
2022-09-30T04:12:54.594Z,42.35
2022-09-30T04:15:22.345Z,57.58
2022-09-30T04:17:50.828Z,57.70
2022-09-30T04:20:18.586Z,45.42
2022-09-30T04:22:47.100Z,44.83
2022-09-30T04:25:16.905Z,56.88
2022-09-30T04:27:44.665Z,53.30
2022-09-30T04:30:12.980Z,42.28
2022-09-30T04:32:45.447Z,47.28
2022-09-30T04:35:13.507Z,47.53
2022-09-30T04:37:44.945Z,41.50
2022-09-30T04:40:14.759Z,40.92
2022-09-30T04:42:45.260Z,45.05
2022-09-30T04:45:13.451Z,42.05
2022-09-30T04:47:44.362Z,45.70
2022-09-30T04:50:12.135Z,41.90
2022-09-30T04:52:43.510Z,43.35
2022-09-30T04:55:11.763Z,54.00
2022-09-30T04:57:39.631Z,49.38
2022-09-30T05:00:10.571Z,49.22
2022-09-30T05:02:38.139Z,44.40
2022-09-30T05:05:06.751Z,44.35
2022-09-30T05:07:34.497Z,40.35
2022-09-30T05:10:02.239Z,38.35
2022-09-30T05:12:29.913Z,44.22
2022-09-30T05:14:57.619Z,37.88
2022-09-30T05:17:26.901Z,54.15
2022-09-30T05:19:54.515Z,45.20
2022-09-30T05:22:23.170Z,41.42
2022-09-30T05:24:51.359Z,46.80
2022-09-30T05:27:18.929Z,52.20
2022-09-30T05:29:46.850Z,47.40
2022-09-30T05:32:14.549Z,45.00
2022-09-30T05:34:43.568Z,52.77
2022-09-30T05:37:11.761Z,43.95
2022-09-30T05:39:39.614Z,38.03
2022-09-30T05:42:10.912Z,48.20
2022-09-30T05:44:41.523Z,46.17
2022-09-30T05:47:11.586Z,42.37
2022-09-30T05:49:40.247Z,34.85
2022-09-30T05:52:09.364Z,38.22
2022-09-30T05:54:37.311Z,36.60
2022-09-30T05:57:05.389Z,39.73
2022-09-30T05:59:32.881Z,35.93
2022-09-30T06:02:00.767Z,37.88
2022-09-30T06:04:28.631Z,40.17
2022-09-30T06:06:56.132Z,41.88
2022-09-30T06:09:25.794Z,49.30
2022-09-30T06:11:59.153Z,38.22
2022-09-30T06:14:28.521Z,47.25
2022-09-30T06:16:56.538Z,44.28
2022-09-30T06:19:24.258Z,44.60
2022-09-30T06:21:52.013Z,49.92
2022-09-30T06:24:19.771Z,53.17
2022-09-30T06:26:48.872Z,58.63
2022-09-30T06:29:16.608Z,63.78
2022-09-30T06:31:44.402Z,49.63
2022-09-30T06:34:12.018Z,52.92
2022-09-30T06:36:41.684Z,48.50
2022-09-30T06:39:13.686Z,58.85
2022-09-30T06:41:43.971Z,55.15
2022-09-30T06:44:13.086Z,57.03
2022-09-30T06:46:52.366Z,61.05
2022-09-30T06:49:22.814Z,58.53
2022-09-30T06:51:51.638Z,62.13
2022-09-30T06:54:32.457Z,58.33
2022-09-30T06:57:00.509Z,66.47
2022-09-30T06:59:29.806Z,61.95
2022-09-30T07:01:57.429Z,53.75
2022-09-30T07:04:25.177Z,66.90
2022-09-30T07:06:55.111Z,59.10
2022-09-30T07:09:23.061Z,53.38
2022-09-30T07:11:51.583Z,56.55
2022-09-30T07:14:19.276Z,47.72
2022-09-30T07:16:48.522Z,54.60
2022-09-30T07:19:22.941Z,55.30
2022-09-30T07:21:51.324Z,60.05
2022-09-30T07:25:20.805Z,66.35
2022-09-30T07:27:48.506Z,61.30
2022-09-30T07:30:25.815Z,60.20
2022-09-30T07:32:55.986Z,54.90
2022-09-30T07:35:23.628Z,56.87
2022-09-30T07:37:51.549Z,71.05
2022-09-30T07:40:19.517Z,52.83
2022-09-30T07:42:47.201Z,64.43
2022-09-30T07:45:15.858Z,55.05
2022-09-30T07:47:44.061Z,50.97
2022-09-30T07:50:15.562Z,53.17
2022-09-30T07:52:43.349Z,45.37
2022-09-30T07:55:11.721Z,50.22
2022-09-30T07:57:39.537Z,52.60
2022-09-30T08:00:37.276Z,48.83
2022-09-30T08:02:55.883Z,43.47
2022-09-30T08:05:25.036Z,48.67
2022-09-30T08:07:53.578Z,42.73
2022-09-30T08:12:49.715Z,36.17
2022-09-30T08:15:17.698Z,42.40
2022-09-30T08:17:45.392Z,34.83
2022-09-30T08:20:16.578Z,30.33
2022-09-30T08:22:48.320Z,31.17
2022-09-30T08:25:15.968Z,30.75
2022-09-30T08:27:43.481Z,26.00
2022-09-30T08:30:12.893Z,26.05
2022-09-30T08:32:40.646Z,25.90
2022-09-30T08:35:09.226Z,27.10
2022-09-30T08:37:37.740Z,26.88
2022-09-30T08:40:08.069Z,28.83
2022-09-30T08:42:51.812Z,25.63
2022-09-30T08:45:31.436Z,19.98
2022-09-30T08:48:06.632Z,28.23
2022-09-30T08:50:38.116Z,26.55
2022-09-30T08:53:10.301Z,22.13
2022-09-30T08:55:42.644Z,19.73
2022-09-30T08:58:20.294Z,23.05
2022-09-30T09:00:50.379Z,25.05
2022-09-30T09:03:20.373Z,23.13
2022-09-30T09:05:52.751Z,23.55
2022-09-30T09:08:27.355Z,21.53
2022-09-30T09:11:02.091Z,22.55
2022-09-30T09:13:44.214Z,22.63
2022-09-30T09:16:17.703Z,21.65
2022-09-30T09:18:53.774Z,20.25
2022-09-30T09:21:23.754Z,22.90
2022-09-30T09:23:53.231Z,18.92
2022-09-30T09:26:22.564Z,20.85
2022-09-30T09:29:00.474Z,18.70
2022-09-30T09:31:28.296Z,19.92
2022-09-30T09:33:57.855Z,18.67
2022-09-30T09:36:34.641Z,22.40
2022-09-30T09:39:17.940Z,18.92
2022-09-30T09:41:53.597Z,18.35
2022-09-30T09:44:27.620Z,18.33
2022-09-30T09:47:05.102Z,17.88
2022-09-30T09:49:35.115Z,18.70
2022-09-30T09:52:23.945Z,18.08
2022-09-30T09:54:56.739Z,19.13
2022-09-30T09:57:32.318Z,17.83
2022-09-30T10:00:22.407Z,19.02
2022-09-30T10:03:06.426Z,13.80
2022-09-30T10:05:39.552Z,18.25
2022-09-30T10:08:12.930Z,15.27
2022-09-30T10:10:45.701Z,17.77
2022-09-30T10:13:32.119Z,18.85
2022-09-30T10:16:01.236Z,13.35
2022-09-30T10:18:30.784Z,15.95
2022-09-30T10:21:00.146Z,15.13
2022-09-30T10:23:31.027Z,16.95
2022-09-30T10:26:02.078Z,10.73
2022-09-30T10:28:33.256Z,17.38
2022-09-30T10:31:04.780Z,17.42
2022-09-30T10:33:36.796Z,13.10
2022-09-30T10:36:08.703Z,18.50
2022-09-30T10:38:37.462Z,14.52
2022-09-30T10:41:06.772Z,14.02
2022-09-30T10:43:40.833Z,15.43
2022-09-30T10:46:27.236Z,17.42
2022-09-30T10:48:56.524Z,14.80
2022-09-30T10:51:29.999Z,11.50
2022-09-30T10:53:58.225Z,13.77
2022-09-30T10:56:46.252Z,13.40
2022-09-30T10:59:37.085Z,13.10
2022-09-30T11:02:19.198Z,13.68
2022-09-30T11:04:51.071Z,13.23
2022-09-30T11:07:27.922Z,15.80
2022-09-30T11:09:59.630Z,16.38
2022-09-30T11:12:31.575Z,14.15
2022-09-30T11:15:05.921Z,14.88
2022-09-30T11:17:40.055Z,13.93
2022-09-30T11:20:16.701Z,14.77
2022-09-30T11:22:50.816Z,14.18
2022-09-30T11:25:26.177Z,14.52
2022-09-30T11:28:02.946Z,17.27
2022-09-30T11:30:39.262Z,17.65
2022-09-30T11:33:20.277Z,14.83
2022-09-30T11:35:54.527Z,13.68
2022-09-30T11:38:34.660Z,14.25
2022-09-30T11:41:05.601Z,15.68
2022-09-30T11:43:42.447Z,11.93
2022-09-30T11:46:38.061Z,11.13
2022-09-30T11:49:16.971Z,11.85
2022-09-30T11:51:52.785Z,9.73
2022-09-30T11:54:32.668Z,10.52
2022-09-30T11:57:03.994Z,10.75
2022-09-30T11:59:36.964Z,10.52
2022-09-30T12:02:20.198Z,8.73
2022-09-30T12:04:48.794Z,10.32
2022-09-30T12:07:18.839Z,8.52
2022-09-30T12:09:49.651Z,8.80
2022-09-30T12:12:19.364Z,9.82
2022-09-30T12:14:49.614Z,10.70
2022-09-30T12:17:22.474Z,8.87
2022-09-30T12:19:53.349Z,8.20
2022-09-30T12:22:26.172Z,9.80
2022-09-30T12:24:53.936Z,11.88
2022-09-30T12:27:25.036Z,10.50
2022-09-30T12:30:16.103Z,8.48
2022-09-30T12:33:22.492Z,9.02
2022-09-30T12:36:20.734Z,7.27
2022-09-30T12:38:59.131Z,9.63
2022-09-30T12:41:39.275Z,9.07
2022-09-30T12:44:39.299Z,7.32
2022-09-30T12:47:16.699Z,8.40
2022-09-30T12:49:44.700Z,7.88
2022-09-30T12:52:17.445Z,9.23
2022-09-30T12:54:51.425Z,8.10
2022-09-30T12:57:22.073Z,9.17
2022-09-30T12:59:53.609Z,9.13
2022-09-30T13:02:31.724Z,8.80
2022-09-30T13:05:33.141Z,8.38
2022-09-30T13:08:18.640Z,9.60
2022-09-30T13:10:58.020Z,10.10
2022-09-30T13:13:27.777Z,8.05
2022-09-30T13:16:03.132Z,6.53
2022-09-30T13:19:02.781Z,6.88
2022-09-30T13:21:32.183Z,8.20
2022-09-30T13:24:02.186Z,6.68
2022-09-30T13:26:49.688Z,6.07
2022-09-30T13:29:38.242Z,6.97
2022-09-30T13:32:10.606Z,6.97
2022-09-30T13:34:56.571Z,7.32
2022-09-30T13:37:39.694Z,6.47
2022-09-30T13:40:37.566Z,4.30
2022-09-30T13:43:15.402Z,5.85
2022-09-30T13:45:44.774Z,6.55
2022-09-30T13:48:15.844Z,5.18
2022-09-30T13:50:47.746Z,4.88
2022-09-30T13:53:21.170Z,4.78
2022-09-30T13:55:53.864Z,6.05
2022-09-30T13:58:57.378Z,3.27
2022-09-30T14:01:35.725Z,9.63
2022-09-30T14:04:21.368Z,5.53
2022-09-30T14:07:00.515Z,4.60
2022-09-30T14:09:41.908Z,3.50
2022-09-30T14:12:42.853Z,4.78
2022-09-30T14:15:32.719Z,6.70
2022-09-30T14:18:22.341Z,4.93
2022-09-30T14:21:02.075Z,3.95
2022-09-30T14:23:30.454Z,5.80
2022-09-30T14:26:01.473Z,3.35
2022-09-30T14:28:35.925Z,4.93
2022-09-30T14:31:10.270Z,4.20
2022-09-30T14:33:39.678Z,2.35
2022-09-30T14:36:14.274Z,4.45
2022-09-30T14:38:44.834Z,2.90
2022-09-30T14:41:18.685Z,5.07
2022-09-30T14:43:50.147Z,2.50
2022-09-30T14:46:26.730Z,3.63
2022-09-30T14:48:56.011Z,2.83
2022-09-30T14:51:25.921Z,4.65
2022-09-30T14:53:56.178Z,3.80
2022-09-30T14:56:31.050Z,5.13
2022-09-30T14:59:05.115Z,3.88
2022-09-30T15:01:35.558Z,6.95
2022-09-30T15:04:09.002Z,5.65
2022-09-30T15:06:38.409Z,5.53
2022-09-30T15:09:08.944Z,4.93
2022-09-30T15:11:39.768Z,4.82
2022-09-30T15:14:14.094Z,6.70
2022-09-30T15:16:47.605Z,6.65
2022-09-30T15:19:19.891Z,4.90
2022-09-30T15:21:49.266Z,5.28
2022-09-30T15:24:17.596Z,4.93
2022-09-30T15:26:47.174Z,4.50
2022-09-30T15:29:19.488Z,7.30
2022-09-30T15:31:48.959Z,7.68
2022-09-30T15:34:20.565Z,9.15
2022-09-30T15:37:01.487Z,3.83
2022-09-30T15:39:51.574Z,4.50
2022-09-30T15:42:30.818Z,9.23
2022-09-30T15:44:59.950Z,6.10
2022-09-30T15:47:28.156Z,6.10
2022-09-30T15:49:56.884Z,7.18
2022-09-30T15:52:30.522Z,6.80
2022-09-30T15:54:59.058Z,6.85
2022-09-30T15:57:54.084Z,7.22
2022-09-30T16:00:35.665Z,4.65
2022-09-30T16:03:21.365Z,4.68
2022-09-30T16:05:53.905Z,5.43
2022-09-30T16:08:24.641Z,6.53
2022-09-30T16:10:53.417Z,4.43
2022-09-30T16:13:25.505Z,6.93
2022-09-30T16:15:59.020Z,5.63
2022-09-30T16:18:32.673Z,5.78
2022-09-30T16:21:04.184Z,6.53
2022-09-30T16:23:36.692Z,6.85
2022-09-30T16:26:20.672Z,8.82
2022-09-30T16:28:48.954Z,6.00
2022-09-30T16:31:18.449Z,5.37
2022-09-30T16:33:47.256Z,5.95
2022-09-30T16:36:15.174Z,5.72
2022-09-30T16:38:43.413Z,8.70
2022-09-30T16:41:12.791Z,6.68
2022-09-30T16:43:41.235Z,4.93
2022-09-30T16:46:10.734Z,4.80
2022-09-30T16:48:40.728Z,4.80
2022-09-30T16:51:12.606Z,4.43
2022-09-30T16:53:41.702Z,7.07
2022-09-30T16:56:15.635Z,4.38
2022-09-30T16:58:44.158Z,7.70
2022-09-30T17:01:17.992Z,4.97
2022-09-30T17:03:47.757Z,7.72
2022-09-30T17:06:15.662Z,5.65
2022-09-30T17:08:43.293Z,4.38
2022-09-30T17:11:11.133Z,6.38
2022-09-30T17:13:39.052Z,9.18
2022-09-30T17:16:07.068Z,6.23
2022-09-30T17:18:34.677Z,7.60
2022-09-30T17:21:04.226Z,6.70
2022-09-30T17:23:32.255Z,11.18
2022-09-30T17:25:59.792Z,6.82
2022-09-30T17:28:27.504Z,12.20
2022-09-30T17:30:55.074Z,12.07
2022-09-30T17:33:22.866Z,9.18
2022-09-30T17:35:59.481Z,13.32
2022-09-30T17:38:28.357Z,10.50
2022-09-30T17:41:14.586Z,13.10
2022-09-30T17:43:42.115Z,7.70
2022-09-30T17:46:10.613Z,10.05
2022-09-30T17:48:39.359Z,9.85
2022-09-30T17:51:07.957Z,8.20
2022-09-30T17:53:38.232Z,9.45
2022-09-30T17:56:09.407Z,11.93
2022-09-30T17:58:37.556Z,11.00
2022-09-30T18:01:08.002Z,12.47
2022-09-30T18:03:36.046Z,12.63
2022-09-30T18:06:04.404Z,9.83
2022-09-30T18:08:31.957Z,10.52
2022-09-30T18:11:05.304Z,13.73
2022-09-30T18:13:33.232Z,7.35
2022-09-30T18:16:06.181Z,14.38
2022-09-30T18:18:35.146Z,11.20
2022-09-30T18:21:03.129Z,11.20
2022-09-30T18:23:35.430Z,11.95
2022-09-30T18:26:04.459Z,10.93
2022-09-30T18:28:32.463Z,11.80
2022-09-30T18:31:05.735Z,10.93
2022-09-30T18:33:33.324Z,13.20
2022-09-30T18:36:01.833Z,15.95
2022-09-30T18:38:30.468Z,14.23
2022-09-30T18:40:58.843Z,11.13
2022-09-30T18:43:32.894Z,16.92
2022-09-30T18:46:02.046Z,12.47
2022-09-30T18:48:38.965Z,12.77
2022-09-30T18:51:07.440Z,15.65
2022-09-30T18:53:35.445Z,13.02
2022-09-30T18:56:04.358Z,12.32
2022-09-30T18:58:38.157Z,17.52
2022-09-30T19:01:06.071Z,14.95
2022-09-30T19:03:34.212Z,13.82
2022-09-30T19:06:08.022Z,15.05
2022-09-30T19:08:35.874Z,14.70
2022-09-30T19:11:11.991Z,13.57
2022-09-30T19:13:43.968Z,13.35
2022-09-30T19:16:12.250Z,15.32
2022-09-30T19:18:40.483Z,13.90
2022-09-30T19:21:10.091Z,12.32
2022-09-30T19:23:38.182Z,8.30
2022-09-30T19:26:08.388Z,10.45
2022-09-30T19:28:37.864Z,10.95
2022-09-30T19:31:11.843Z,12.77
2022-09-30T19:33:51.679Z,11.23
2022-09-30T19:36:23.269Z,15.60
2022-09-30T19:39:00.979Z,10.15
2022-09-30T19:41:34.434Z,9.68
2022-09-30T19:44:03.979Z,13.40
2022-09-30T19:46:34.065Z,11.10
2022-09-30T19:49:02.899Z,12.52
2022-09-30T19:51:32.851Z,14.60
2022-09-30T19:54:06.648Z,10.33
2022-09-30T19:56:35.678Z,12.07
2022-09-30T19:59:03.911Z,11.50
2022-09-30T20:01:36.013Z,13.33
2022-09-30T20:04:05.425Z,9.60
2022-09-30T20:06:34.646Z,13.23
2022-09-30T20:09:12.443Z,12.87
2022-09-30T20:11:40.806Z,13.25
2022-09-30T20:14:27.557Z,11.82
2022-09-30T20:16:56.772Z,13.43
2022-09-30T20:19:25.267Z,11.43
2022-09-30T20:21:55.030Z,15.38
2022-09-30T20:24:25.643Z,11.70
2022-09-30T20:26:53.641Z,11.95
2022-09-30T20:29:21.390Z,13.55
2022-09-30T20:31:50.511Z,15.93
2022-09-30T20:34:20.215Z,11.82
2022-09-30T20:36:48.492Z,12.48
2022-09-30T20:39:16.228Z,11.18
2022-09-30T20:41:44.492Z,13.45
2022-09-30T20:44:13.791Z,13.32
2022-09-30T20:46:43.244Z,9.93
2022-09-30T20:49:11.137Z,12.87
2022-09-30T20:51:40.395Z,9.90
2022-09-30T20:54:08.395Z,11.20
2022-09-30T20:57:02.727Z,11.25
2022-09-30T20:59:24.724Z,8.90
2022-09-30T21:01:52.483Z,7.65
2022-09-30T21:04:21.412Z,9.13
2022-09-30T21:06:50.392Z,10.98
2022-09-30T21:09:18.093Z,9.30
2022-09-30T21:11:45.869Z,9.02
2022-09-30T21:14:14.226Z,9.55
2022-09-30T21:16:42.787Z,10.93
2022-09-30T21:19:11.386Z,8.48
2022-09-30T21:21:39.265Z,11.70
2022-09-30T21:24:08.341Z,8.57
2022-09-30T21:26:36.352Z,11.25
2022-09-30T21:29:04.171Z,7.50
2022-09-30T21:31:33.617Z,10.75
2022-09-30T21:34:02.083Z,8.05
2022-09-30T21:36:32.137Z,6.38
2022-09-30T21:39:02.755Z,7.13
2022-09-30T21:41:34.450Z,9.02
2022-09-30T21:44:04.356Z,5.47
2022-09-30T21:46:32.213Z,6.63
2022-09-30T21:49:09.895Z,5.80
2022-09-30T21:51:37.571Z,7.17
2022-09-30T21:54:06.259Z,10.30
2022-09-30T21:56:35.584Z,6.97
2022-09-30T21:59:03.778Z,7.53
2022-09-30T22:01:31.824Z,9.30
2022-09-30T22:04:00.284Z,4.97
2022-09-30T22:06:28.666Z,9.90
2022-09-30T22:08:56.341Z,5.13
2022-09-30T22:11:25.153Z,6.20
2022-09-30T22:13:56.763Z,5.47
2022-09-30T22:16:27.445Z,7.22
2022-09-30T22:18:56.242Z,4.70
2022-09-30T22:21:24.498Z,4.90
2022-09-30T22:23:52.197Z,9.15
2022-09-30T22:26:22.943Z,5.00
2022-09-30T22:28:56.567Z,5.50
2022-09-30T22:31:26.118Z,3.80
2022-09-30T22:34:13.619Z,5.73
2022-09-30T22:36:59.182Z,5.68
2022-09-30T22:39:27.550Z,4.05
2022-09-30T22:41:56.676Z,6.07
2022-09-30T22:44:26.805Z,6.25
2022-09-30T22:46:55.027Z,3.85
2022-09-30T22:49:24.713Z,7.90
2022-09-30T22:51:52.329Z,5.95
2022-09-30T22:54:20.173Z,6.63
2022-09-30T22:56:50.633Z,6.00
2022-09-30T22:59:18.488Z,8.33
2022-09-30T23:01:50.664Z,3.45
2022-09-30T23:04:19.169Z,3.80
2022-09-30T23:06:49.227Z,3.85
2022-09-30T23:09:17.088Z,6.32
2022-09-30T23:11:46.044Z,6.97
2022-09-30T23:14:13.846Z,4.18
2022-09-30T23:16:42.988Z,4.88
2022-09-30T23:19:12.490Z,5.28
2022-09-30T23:21:40.738Z,5.13
2022-09-30T23:24:08.866Z,4.65
2022-09-30T23:26:37.339Z,7.05
2022-09-30T23:29:06.860Z,3.95
2022-09-30T23:31:35.200Z,4.32
2022-09-30T23:34:05.100Z,4.07
2022-09-30T23:36:38.783Z,4.07
2022-09-30T23:39:09.363Z,5.67
2022-09-30T23:41:37.528Z,4.38
2022-09-30T23:44:06.166Z,5.35
2022-09-30T23:46:34.049Z,5.55
2022-09-30T23:49:02.597Z,3.75
2022-09-30T23:51:33.759Z,4.63
2022-09-30T23:54:03.712Z,4.07
2022-09-30T23:56:32.100Z,5.55
2022-09-30T23:58:59.938Z,4.30
